Atascadero, California
Current Conditions -  °F | °C
As of 11:53 AM on Saturday 25 Oct 2014 (Local Time) from KPRB Reporting Station
Scattered Clouds Scattered Clouds  
Wind Chill: 73°   Ceiling: Unl
Heat Index: 73°   Visibility: 10mi
Dew Point: 54°   Wind: 10mph
Humidity: 51%   Direction: 230°SW
Pressure: 30.09"   Gusts: NA
Location:  35.49°N, 120.66°W
Report Text: KPRB 251853Z AUTO 23009KT 10SM FEW032 FEW040 SCT050 23/12 A3009 RMK AO2 SLP185 T02280122 TSNO
Loading
Personal Weather Stations






























Interactive Weather Map
Tropical Storm Tracking
New forecast layout! Learn more

10-Day Weather Forecast

Advertisements
Track Severe Weather on mobile